Luanco, Spain
Current Conditions -  °F | °C
As of 3:30 PM on Friday 28 Nov 2014 (Local Time) from LEAS Reporting Station
Scattered Clouds Scattered Clouds  
Wind Chill: 61°   Ceiling: Unl
Heat Index: 61°   Visibility: 6mi
Dew Point: 45°   Wind: 7mph
Humidity: 55%   Direction: 160°SSE
Pressure: 29"   Gusts: NA
Location:  43.62°N, 5.79°W
Report Text: LEAS 281430Z 16006KT 130V190 9999 FEW072 SCT084 16/07 Q0982 NOSIG
Loading
Personal Weather Stations






























Interactive Weather Map New forecast layout! Learn more

10-Day Weather Forecast

Advertisements
Track Severe Weather on mobile